createdAt,value
2019-02-22T00:00:50.158Z,5.03
2019-02-22T00:03:23.972Z,5.00
2019-02-22T00:05:57.734Z,5.03
2019-02-22T00:08:31.709Z,3.97
2019-02-22T00:11:05.450Z,5.17
2019-02-22T00:13:39.272Z,3.53
2019-02-22T00:16:13.086Z,5.87
2019-02-22T00:18:46.850Z,6.97
2019-02-22T00:21:20.655Z,4.73
2019-02-22T00:23:54.315Z,4.70
2019-02-22T00:26:27.939Z,2.93
2019-02-22T00:29:01.668Z,4.53
2019-02-22T00:31:35.390Z,2.87
2019-02-22T00:34:09.103Z,3.67
2019-02-22T00:36:42.692Z,4.07
2019-02-22T00:39:16.391Z,3.57
2019-02-22T00:41:49.990Z,4.63
2019-02-22T00:44:32.665Z,4.27
2019-02-22T00:47:06.296Z,2.53
2019-02-22T00:49:39.945Z,3.23
2019-02-22T00:52:13.620Z,3.43
2019-02-22T00:54:47.321Z,6.27
2019-02-22T00:57:21.012Z,5.10
2019-02-22T00:59:54.646Z,4.17
2019-02-22T01:02:29.906Z,12.27
2019-02-22T01:05:03.586Z,5.70
2019-02-22T01:07:37.170Z,5.10
2019-02-22T01:10:10.924Z,6.07
2019-02-22T01:12:44.579Z,7.20
2019-02-22T01:15:18.257Z,6.70
2019-02-22T01:17:51.879Z,5.43
2019-02-22T01:20:25.473Z,7.87
2019-02-22T01:22:59.094Z,5.50
2019-02-22T01:25:32.900Z,3.97
2019-02-22T01:28:06.578Z,5.30
2019-02-22T01:30:40.368Z,8.40
2019-02-22T01:33:14.036Z,3.43
2019-02-22T01:35:47.707Z,4.83
2019-02-22T01:38:21.305Z,6.87
2019-02-22T01:40:55.180Z,3.83
2019-02-22T01:43:28.885Z,3.40
2019-02-22T01:46:02.594Z,2.70
2019-02-22T01:48:36.468Z,3.80
2019-02-22T01:51:10.106Z,3.43
2019-02-22T01:53:43.766Z,4.03
2019-02-22T01:56:17.558Z,3.03
2019-02-22T01:58:51.165Z,4.87
2019-02-22T02:01:24.816Z,3.00
2019-02-22T02:03:58.422Z,4.00
2019-02-22T02:06:32.087Z,3.10
2019-02-22T02:09:06.141Z,6.47
2019-02-22T02:11:39.866Z,2.80
2019-02-22T02:14:13.572Z,1.87
2019-02-22T02:16:47.289Z,2.70
2019-02-22T02:19:20.948Z,2.60
2019-02-22T02:21:54.716Z,1.77
2019-02-22T02:24:28.433Z,1.00
2019-02-22T02:27:02.027Z,2.03
2019-02-22T02:29:35.827Z,2.60
2019-02-22T02:32:09.499Z,2.67
2019-02-22T02:34:43.298Z,3.20
2019-02-22T02:37:16.954Z,1.77
2019-02-22T02:39:50.664Z,1.37
2019-02-22T02:42:24.417Z,2.43
2019-02-22T02:44:58.108Z,1.60
2019-02-22T02:47:31.710Z,2.33
2019-02-22T02:50:07.397Z,1.63
2019-02-22T02:52:41.570Z,5.30
2019-02-22T02:55:27.070Z,5.43
2019-02-22T02:58:00.662Z,4.93
2019-02-22T03:00:34.500Z,2.63
2019-02-22T03:03:09.048Z,4.13
2019-02-22T03:05:56.318Z,5.57
2019-02-22T03:08:31.685Z,1.83
2019-02-22T03:11:05.456Z,5.30
2019-02-22T03:13:39.049Z,2.50
2019-02-22T03:16:12.702Z,5.53
2019-02-22T03:18:46.323Z,2.47
2019-02-22T03:21:20.019Z,2.83
2019-02-22T03:23:53.667Z,1.90
2019-02-22T03:26:27.374Z,1.40
2019-02-22T03:29:02.662Z,2.60
2019-02-22T03:31:36.379Z,2.20
2019-02-22T03:34:10.114Z,2.93
2019-02-22T03:36:45.764Z,7.10
2019-02-22T03:39:19.683Z,2.43
2019-02-22T03:41:53.692Z,1.53
2019-02-22T03:44:28.569Z,2.73
2019-02-22T03:47:02.215Z,4.43
2019-02-22T03:49:35.833Z,1.30
2019-02-22T03:52:17.072Z,1.53
2019-02-22T03:54:50.938Z,3.03
2019-02-22T03:57:24.773Z,3.93
2019-02-22T03:59:58.413Z,2.10
2019-02-22T04:02:32.182Z,3.00
2019-02-22T04:05:07.610Z,4.70
2019-02-22T04:07:41.233Z,3.53
2019-02-22T04:10:15.101Z,2.57
2019-02-22T04:12:49.210Z,3.43
2019-02-22T04:15:22.893Z,2.60
2019-02-22T04:17:56.481Z,1.93
2019-02-22T04:20:30.401Z,4.70
2019-02-22T04:23:04.577Z,3.20
2019-02-22T04:25:38.210Z,2.67
2019-02-22T04:28:11.943Z,5.17
2019-02-22T04:30:45.564Z,3.23
2019-02-22T04:33:19.186Z,4.37
2019-02-22T04:35:52.995Z,2.80
2019-02-22T04:38:26.676Z,2.87
2019-02-22T04:41:00.420Z,3.10
2019-02-22T04:43:35.580Z,3.37
2019-02-22T04:46:10.175Z,3.93
2019-02-22T04:48:43.824Z,3.90
2019-02-22T04:51:17.498Z,3.17
2019-02-22T04:53:51.131Z,5.80
2019-02-22T04:56:26.457Z,2.80
2019-02-22T04:59:00.046Z,6.73
2019-02-22T05:01:33.981Z,1.60
2019-02-22T05:04:07.599Z,5.03
2019-02-22T05:06:41.296Z,5.57
2019-02-22T05:09:17.584Z,6.43
2019-02-22T05:11:51.478Z,3.50
2019-02-22T05:14:25.122Z,3.33
2019-02-22T05:16:58.850Z,1.50
2019-02-22T05:19:32.777Z,2.03
2019-02-22T05:22:06.466Z,3.20
2019-02-22T05:24:40.147Z,3.60
2019-02-22T05:27:13.849Z,3.93
2019-02-22T05:29:47.522Z,2.40
2019-02-22T05:32:21.219Z,5.13
2019-02-22T05:34:54.935Z,1.60
2019-02-22T05:37:28.610Z,6.47
2019-02-22T05:40:02.364Z,4.00
2019-02-22T05:42:36.066Z,2.97
2019-02-22T05:45:09.840Z,7.53
2019-02-22T05:47:43.457Z,2.77
2019-02-22T05:50:17.053Z,5.07
2019-02-22T05:52:50.704Z,5.53
2019-02-22T05:55:24.424Z,2.80
2019-02-22T05:57:59.747Z,2.60
2019-02-22T06:00:33.603Z,3.63
2019-02-22T06:03:07.186Z,2.50
2019-02-22T06:05:42.385Z,3.43
2019-02-22T06:08:17.058Z,4.03
2019-02-22T06:10:50.751Z,1.60
2019-02-22T06:13:24.453Z,4.03
2019-02-22T06:15:58.283Z,2.53
2019-02-22T06:18:31.935Z,4.90
2019-02-22T06:21:05.794Z,7.50
2019-02-22T06:23:39.442Z,2.33
2019-02-22T06:26:13.146Z,2.73
2019-02-22T06:28:47.081Z,2.13
2019-02-22T06:31:20.746Z,1.60
2019-02-22T06:33:54.344Z,2.97
2019-02-22T06:36:28.089Z,5.03
2019-02-22T06:39:02.327Z,3.10
2019-02-22T06:41:36.027Z,4.90
2019-02-22T06:44:11.929Z,7.80
2019-02-22T06:46:44.953Z,2.33
2019-02-22T06:49:18.676Z,4.70
2019-02-22T06:51:55.181Z,2.80
2019-02-22T06:54:28.811Z,3.27
2019-02-22T06:57:02.509Z,4.13
2019-02-22T06:59:36.323Z,5.70
2019-02-22T07:02:09.951Z,3.80
2019-02-22T07:04:43.557Z,5.57
2019-02-22T07:07:17.204Z,3.07
2019-02-22T07:09:50.830Z,3.87
2019-02-22T07:12:26.197Z,3.73
2019-02-22T07:15:00.021Z,1.40
2019-02-22T07:17:35.046Z,2.87
2019-02-22T07:20:10.691Z,4.87
2019-02-22T07:25:48.524Z,3.97
2019-02-22T07:28:22.160Z,2.73
2019-02-22T07:30:55.917Z,3.37
2019-02-22T07:33:30.313Z,3.90
2019-02-22T07:36:04.041Z,4.70
2019-02-22T07:42:23.814Z,2.27
2019-02-22T07:44:57.479Z,6.93
2019-02-22T07:47:31.231Z,3.50
2019-02-22T07:50:08.210Z,2.57
2019-02-22T07:52:41.793Z,3.60
2019-02-22T07:58:52.547Z,3.07
2019-02-22T08:01:27.009Z,3.90
2019-02-22T08:04:00.857Z,3.20
2019-02-22T08:06:34.542Z,2.50
2019-02-22T08:09:08.269Z,6.33
2019-02-22T08:11:42.129Z,3.33
2019-02-22T08:14:15.868Z,1.87
2019-02-22T08:16:49.571Z,2.53
2019-02-22T08:19:23.316Z,5.63
2019-02-22T08:21:56.994Z,2.13
2019-02-22T08:24:30.904Z,3.00
2019-02-22T08:27:04.753Z,4.37
2019-02-22T08:29:38.690Z,1.27
2019-02-22T08:32:12.386Z,3.83
2019-02-22T08:34:46.071Z,3.47
2019-02-22T08:37:19.626Z,1.63
2019-02-22T08:39:58.709Z,2.73
2019-02-22T08:42:28.556Z,2.63
2019-02-22T08:45:02.239Z,4.20
2019-02-22T08:47:35.859Z,3.53
2019-02-22T08:50:14.391Z,2.67
2019-02-22T08:52:47.712Z,3.03
2019-02-22T08:55:21.356Z,5.33
2019-02-22T08:57:55.068Z,1.73
2019-02-22T09:00:28.844Z,2.30
2019-02-22T09:03:02.489Z,2.40
2019-02-22T09:05:36.057Z,4.57
2019-02-22T09:08:11.696Z,1.17
2019-02-22T09:10:45.647Z,2.10
2019-02-22T09:13:19.263Z,4.13
2019-02-22T09:15:54.263Z,7.00
2019-02-22T09:18:27.859Z,1.30
2019-02-22T09:21:01.617Z,5.87
2019-02-22T09:27:12.034Z,2.07
2019-02-22T09:29:45.696Z,2.40
2019-02-22T09:32:19.384Z,3.40
2019-02-22T09:34:52.982Z,5.33
2019-02-22T09:37:26.798Z,6.90
2019-02-22T09:43:54.750Z,2.40
2019-02-22T09:46:22.078Z,2.20
2019-02-22T09:48:55.890Z,3.60
2019-02-22T09:51:29.484Z,1.80
2019-02-22T09:54:03.289Z,5.10
2019-02-22T09:56:36.891Z,6.23
2019-02-22T09:59:10.638Z,2.10
2019-02-22T10:01:44.485Z,2.83
2019-02-22T10:04:18.046Z,1.90
2019-02-22T10:06:51.686Z,2.30
2019-02-22T10:09:25.296Z,2.83
2019-02-22T10:11:59.014Z,1.97
2019-02-22T10:14:32.700Z,1.57
2019-02-22T10:17:06.386Z,2.43
2019-02-22T10:19:40.028Z,5.37
2019-02-22T10:22:13.864Z,1.63
2019-02-22T10:24:47.549Z,1.50
2019-02-22T10:27:21.170Z,1.00
2019-02-22T10:29:54.806Z,2.73
2019-02-22T10:32:28.436Z,0.97
2019-02-22T10:35:02.124Z,2.30
2019-02-22T10:37:35.832Z,0.97
2019-02-22T10:40:10.355Z,2.53
2019-02-22T10:42:44.034Z,3.60
2019-02-22T10:45:17.719Z,4.00
2019-02-22T10:47:51.323Z,0.83
2019-02-22T10:50:25.326Z,2.13
2019-02-22T10:53:02.415Z,5.13
2019-02-22T10:55:34.862Z,6.63
2019-02-22T10:58:08.504Z,7.20
2019-02-22T11:00:42.143Z,4.90
2019-02-22T11:03:16.076Z,2.10
2019-02-22T11:05:49.852Z,5.13
2019-02-22T11:08:23.516Z,1.57
2019-02-22T11:10:57.165Z,3.70
2019-02-22T11:13:30.860Z,1.03
2019-02-22T11:16:04.836Z,3.50
2019-02-22T11:18:41.686Z,3.53
2019-02-22T11:21:15.628Z,1.87
2019-02-22T11:23:50.890Z,2.17
2019-02-22T11:26:24.644Z,4.07
2019-02-22T11:28:58.268Z,3.43
2019-02-22T11:31:31.940Z,1.53
2019-02-22T11:34:05.608Z,1.37
2019-02-22T11:36:39.514Z,1.70
2019-02-22T11:39:13.161Z,2.17
2019-02-22T11:41:47.108Z,1.07
2019-02-22T11:44:20.928Z,3.00
2019-02-22T11:46:54.588Z,7.90
2019-02-22T11:49:28.171Z,3.23
2019-02-22T11:52:01.862Z,4.20
2019-02-22T11:54:35.557Z,2.67
2019-02-22T11:57:10.422Z,1.77
2019-02-22T11:59:45.940Z,1.87
2019-02-22T12:02:19.852Z,1.17
2019-02-22T12:04:53.605Z,1.90
2019-02-22T12:07:27.285Z,1.40
2019-02-22T12:13:38.521Z,3.17
2019-02-22T12:16:12.062Z,1.10
2019-02-22T12:18:45.936Z,3.37
2019-02-22T12:21:19.803Z,1.90
2019-02-22T12:23:54.738Z,1.30
2019-02-22T12:30:12.347Z,3.10
2019-02-22T12:32:46.150Z,3.67
2019-02-22T12:35:20.011Z,0.90
2019-02-22T12:37:53.697Z,1.20
2019-02-22T12:40:27.499Z,1.80
2019-02-22T12:43:01.206Z,1.60
2019-02-22T12:45:34.810Z,3.73
2019-02-22T12:48:08.490Z,0.93
2019-02-22T12:50:42.146Z,1.53
2019-02-22T12:53:15.818Z,2.00
2019-02-22T12:55:49.768Z,0.80
2019-02-22T12:58:23.360Z,1.17
2019-02-22T13:00:57.090Z,3.53
2019-02-22T13:03:30.838Z,1.47
2019-02-22T13:06:04.645Z,3.70
2019-02-22T13:08:39.686Z,3.13
2019-02-22T13:11:13.264Z,3.43
2019-02-22T13:13:47.004Z,3.73
2019-02-22T13:16:20.728Z,1.73
2019-02-22T13:18:54.340Z,1.13
2019-02-22T13:21:28.079Z,2.43
2019-02-22T13:24:01.648Z,1.60
2019-02-22T13:26:35.309Z,0.50
2019-02-22T13:29:09.318Z,1.33
2019-02-22T13:31:42.958Z,4.13
2019-02-22T13:34:16.713Z,6.07
2019-02-22T13:36:50.412Z,3.67
2019-02-22T13:39:24.516Z,1.40
2019-02-22T13:41:58.493Z,1.30
2019-02-22T13:44:32.557Z,1.30
2019-02-22T13:47:06.536Z,3.97
2019-02-22T13:49:40.334Z,1.50
2019-02-22T13:52:14.085Z,1.67
2019-02-22T13:54:47.869Z,2.30
2019-02-22T13:57:21.395Z,1.23
2019-02-22T13:59:55.028Z,3.13
2019-02-22T14:02:28.861Z,2.53
2019-02-22T14:05:02.520Z,0.83
2019-02-22T14:07:36.346Z,2.67
2019-02-22T14:10:10.089Z,2.73
2019-02-22T14:12:43.855Z,2.37
2019-02-22T14:15:18.841Z,3.10
2019-02-22T14:18:00.097Z,0.80
2019-02-22T14:20:34.095Z,1.90
2019-02-22T14:23:09.757Z,1.13
2019-02-22T14:25:43.365Z,3.13
2019-02-22T14:28:17.149Z,2.37
2019-02-22T14:30:58.542Z,2.53
2019-02-22T14:33:33.582Z,1.27
2019-02-22T14:36:07.325Z,3.90
2019-02-22T14:38:41.049Z,3.00
2019-02-22T14:44:43.879Z,5.00
2019-02-22T14:47:17.484Z,1.33
2019-02-22T14:49:51.151Z,2.10
2019-02-22T14:52:24.817Z,0.90
2019-02-22T14:54:58.422Z,1.50
2019-02-22T15:01:18.100Z,2.97
2019-02-22T15:03:51.787Z,3.00
2019-02-22T15:06:25.376Z,5.23
2019-02-22T15:08:59.063Z,3.50
2019-02-22T15:11:32.951Z,4.30
2019-02-22T15:14:06.634Z,5.50
2019-02-22T15:16:58.337Z,2.57
2019-02-22T15:19:32.136Z,5.17
2019-02-22T15:22:05.853Z,3.43
2019-02-22T15:24:39.545Z,2.70
2019-02-22T15:27:13.184Z,3.60
2019-02-22T15:29:47.082Z,6.40
2019-02-22T15:32:20.967Z,2.93
2019-02-22T15:34:54.665Z,3.03
2019-02-22T15:37:28.356Z,4.07
2019-02-22T15:40:05.120Z,3.90
2019-02-22T15:42:40.545Z,4.07
2019-02-22T15:45:16.384Z,3.63
2019-02-22T15:47:50.122Z,3.77
2019-02-22T15:50:23.721Z,3.63
2019-02-22T15:52:57.378Z,2.13
2019-02-22T15:55:31.059Z,3.30
2019-02-22T15:58:07.205Z,1.83
2019-02-22T16:00:40.882Z,2.63
2019-02-22T16:03:14.650Z,4.53
2019-02-22T16:05:48.645Z,3.13
2019-02-22T16:08:22.887Z,6.50
2019-02-22T16:10:56.554Z,4.50
2019-02-22T16:13:30.246Z,6.37
2019-02-22T16:16:03.927Z,3.50
2019-02-22T16:18:37.711Z,4.30
2019-02-22T16:21:11.819Z,4.97
2019-02-22T16:23:45.601Z,7.20
2019-02-22T16:26:21.142Z,2.53
2019-02-22T16:28:54.721Z,3.90
2019-02-22T16:31:30.571Z,3.00
2019-02-22T16:34:05.165Z,3.13
2019-02-22T16:36:42.126Z,1.50
2019-02-22T16:39:25.619Z,4.87
2019-02-22T16:45:36.316Z,1.60
2019-02-22T16:48:10.086Z,2.27
2019-02-22T16:50:43.716Z,2.40
2019-02-22T16:53:17.313Z,2.47
2019-02-22T16:55:51.941Z,1.30
2019-02-22T17:02:12.087Z,3.53
2019-02-22T17:04:45.789Z,5.17
2019-02-22T17:07:19.434Z,3.73
2019-02-22T17:09:53.486Z,8.53
2019-02-22T17:12:27.317Z,13.43
2019-02-22T17:15:01.013Z,9.63
2019-02-22T17:17:34.748Z,10.50
2019-02-22T17:20:17.497Z,5.90
2019-02-22T17:22:51.185Z,5.27
2019-02-22T17:25:24.937Z,4.67
2019-02-22T17:27:58.700Z,5.07
2019-02-22T17:30:32.352Z,7.93
2019-02-22T17:33:06.679Z,9.33
2019-02-22T17:35:41.689Z,6.63
2019-02-22T17:38:15.686Z,7.40
2019-02-22T17:40:49.404Z,5.90
2019-02-22T17:43:23.104Z,10.03
2019-02-22T17:45:58.476Z,7.47
2019-02-22T17:48:32.176Z,9.93
2019-02-22T17:51:06.918Z,9.10
2019-02-22T17:53:40.616Z,5.93
2019-02-22T17:56:14.454Z,6.77
2019-02-22T17:58:48.154Z,11.67
2019-02-22T18:01:21.755Z,10.50
2019-02-22T18:03:55.401Z,30.17
2019-02-22T18:06:29.011Z,45.10
2019-02-22T18:09:05.176Z,54.20
2019-02-22T18:11:38.954Z,59.47
2019-02-22T18:14:12.606Z,59.73
2019-02-22T18:16:46.346Z,57.50
2019-02-22T18:19:19.954Z,77.93
2019-02-22T18:21:53.630Z,81.77
2019-02-22T18:24:27.205Z,79.53
2019-02-22T18:27:02.604Z,90.87
2019-02-22T18:29:36.278Z,107.63
2019-02-22T18:32:10.120Z,105.70
2019-02-22T18:34:43.840Z,98.07
2019-02-22T18:37:17.498Z,113.30
2019-02-22T18:39:51.233Z,96.73
2019-02-22T18:45:10.223Z,89.30
2019-02-22T18:47:43.853Z,98.23
2019-02-22T18:50:17.567Z,87.10
2019-02-22T18:52:51.197Z,83.07
2019-02-22T18:55:24.821Z,98.77
2019-02-22T19:01:44.598Z,123.27
2019-02-22T19:04:18.293Z,118.23
2019-02-22T19:06:51.932Z,122.13
2019-02-22T19:09:25.709Z,126.17
2019-02-22T19:11:59.368Z,119.00
2019-02-22T19:18:01.079Z,100.30
2019-02-22T19:20:34.781Z,111.23
2019-02-22T19:23:08.826Z,103.47
2019-02-22T19:25:42.463Z,104.07
2019-02-22T19:28:16.103Z,143.23
2019-02-22T19:30:50.060Z,139.97
2019-02-22T19:33:23.709Z,138.00
2019-02-22T19:35:58.360Z,134.10
2019-02-22T19:38:32.071Z,119.83
2019-02-22T19:41:05.726Z,123.07
2019-02-22T19:43:39.385Z,143.53
2019-02-22T19:46:13.594Z,149.80
2019-02-22T19:48:47.308Z,149.73
2019-02-22T19:51:20.988Z,144.57
2019-02-22T19:53:54.670Z,152.47
2019-02-22T19:56:28.360Z,157.10
2019-02-22T19:59:02.099Z,148.57
2019-02-22T20:01:35.700Z,124.83
2019-02-22T20:04:09.551Z,139.27
2019-02-22T20:06:43.167Z,128.80
2019-02-22T20:09:17.112Z,116.00
2019-02-22T20:11:50.765Z,112.87
2019-02-22T20:14:24.527Z,114.73
2019-02-22T20:16:58.160Z,97.70
2019-02-22T20:19:31.745Z,113.63
2019-02-22T20:22:05.436Z,134.43
2019-02-22T20:24:39.047Z,118.87
2019-02-22T20:27:12.816Z,104.83
2019-02-22T20:29:46.415Z,102.17
2019-02-22T20:32:21.253Z,100.97
2019-02-22T20:34:55.996Z,98.10
2019-02-22T20:37:29.708Z,101.57
2019-02-22T20:40:03.450Z,119.73
2019-02-22T20:42:37.252Z,111.73
2019-02-22T20:45:12.315Z,105.43
2019-02-22T20:47:48.408Z,89.53
2019-02-22T20:50:26.521Z,100.40
2019-02-22T20:52:59.892Z,95.87
2019-02-22T20:55:35.694Z,93.43
2019-02-22T20:58:11.012Z,87.23
2019-02-22T21:00:44.663Z,92.67
2019-02-22T21:03:18.340Z,85.67
2019-02-22T21:05:52.020Z,97.40
2019-02-22T21:08:26.676Z,95.50
2019-02-22T21:11:00.277Z,96.83
2019-02-22T21:17:02.429Z,83.87
2019-02-22T21:19:36.025Z,96.37
2019-02-22T21:22:09.752Z,96.17
2019-02-22T21:24:43.354Z,89.10
2019-02-22T21:27:17.343Z,86.70
2019-02-22T21:33:30.244Z,99.33
2019-02-22T21:36:05.389Z,99.23
2019-02-22T21:38:39.123Z,104.03
2019-02-22T21:41:13.072Z,100.80
2019-02-22T21:43:46.800Z,120.93
2019-02-22T21:46:20.401Z,139.97
2019-02-22T21:48:54.051Z,132.57
2019-02-22T21:51:27.776Z,143.80
2019-02-22T21:54:01.562Z,154.10
2019-02-22T21:56:37.156Z,176.77
2019-02-22T21:59:10.895Z,174.73
2019-02-22T22:01:44.665Z,167.87
2019-02-22T22:04:18.386Z,154.63
2019-02-22T22:06:54.916Z,131.90
2019-02-22T22:09:28.608Z,141.10
2019-02-22T22:12:02.472Z,151.00
2019-02-22T22:14:36.823Z,144.93
2019-02-22T22:17:10.450Z,160.23
2019-02-22T22:19:44.074Z,167.00
2019-02-22T22:22:17.758Z,164.63
2019-02-22T22:24:51.414Z,150.80
2019-02-22T22:27:25.085Z,138.07
2019-02-22T22:29:58.711Z,121.93
2019-02-22T22:32:32.392Z,101.77
2019-02-22T22:35:08.669Z,110.23
2019-02-22T22:37:42.331Z,120.93
2019-02-22T22:40:16.038Z,108.10
2019-02-22T22:42:49.780Z,109.47
2019-02-22T22:45:23.714Z,114.33
2019-02-22T22:47:57.508Z,114.57
2019-02-22T22:50:31.198Z,125.73
2019-02-22T22:53:04.946Z,115.33
2019-02-22T22:55:38.578Z,121.17
2019-02-22T22:58:12.375Z,119.53
2019-02-22T23:00:50.793Z,118.40
2019-02-22T23:03:24.411Z,120.77
2019-02-22T23:05:58.191Z,99.70
2019-02-22T23:08:33.674Z,107.47
2019-02-22T23:11:07.372Z,99.73
2019-02-22T23:13:41.092Z,101.27
2019-02-22T23:16:14.695Z,91.97
2019-02-22T23:18:48.384Z,93.50
2019-02-22T23:21:23.489Z,93.07
2019-02-22T23:24:00.440Z,94.90
2019-02-22T23:26:35.675Z,86.23
2019-02-22T23:32:46.854Z,85.37
2019-02-22T23:35:23.660Z,85.83
2019-02-22T23:37:57.337Z,84.77
2019-02-22T23:40:31.132Z,84.87
2019-02-22T23:43:04.914Z,100.77
2019-02-22T23:49:18.465Z,94.60
2019-02-22T23:51:52.088Z,94.47
2019-02-22T23:54:25.722Z,89.87
2019-02-22T23:56:59.703Z,78.67
2019-02-22T23:59:38.636Z,81.33
